23 maggio 2022

Tempo Codice Tempo metereologico Temp. Vista Nuvole Vento METAR/SPECI
09:00
V
21 °C 10 km+ - 180°   180° 12 kt METAR LFLU 230700Z AUTO 18012KT 9999 ////// 21/15 Q1007
08:30
V
21 °C 10 km+ - 170°   170° 10 kt METAR LFLU 230630Z AUTO 17010KT 9999 ////// 21/16 Q1006
08:00
V
20 °C 10 km+ - 160°   160° 9 kt METAR LFLU 230600Z AUTO 16009KT 140V200 9999 ////// 20/15 Q1007

22 maggio 2022

Tempo Codice Tempo metereologico Temp. Vista Nuvole Vento METAR/SPECI
20:00
V
27 °C 10 km+ - 190°   190° 3 kt METAR LFLU 221800Z AUTO 19003KT 120V250 CAVOK 27/17 Q1008
19:30
V
28 °C 10 km+ - 140°   140° 3 kt METAR LFLU 221730Z AUTO 14003KT 100V180 CAVOK 28/17 Q1008
19:00
V
27 °C 10 km+ - 190°   190° 7 kt METAR LFLU 221700Z AUTO 19007KT 9999 ////// 27/18 Q1008
18:30
V
29 °C 10 km+ - 170°   170° 7 kt METAR LFLU 221630Z AUTO 17007KT CAVOK 29/18 Q1007
18:00
V
29 °C 10 km+ - 170°   170° 7 kt METAR LFLU 221600Z AUTO 17007KT 140V200 CAVOK 29/17 Q1007
17:30
V
30 °C 10 km+ - 180°   180° 10 kt METAR LFLU 221530Z AUTO 18010KT 9999 ////// 30/17 Q1008
17:00
V
31 °C 10 km+ - 170°   170° 11 kt METAR LFLU 221500Z AUTO 17011KT CAVOK 31/17 Q1008
16:30
V
32 °C 10 km+ 22.000 ft 190°   190° 11 kt METAR LFLU 221430Z AUTO 19011KT 150V220 9999 FEW001 SCT170 BKN220 32/17 Q1008
16:00
V
32 °C 10 km+ - 210°   210° 11 kt METAR LFLU 221400Z AUTO 21011KT 180V250 CAVOK 32/17 Q1008
15:30
V
33 °C 10 km+ - 210°   210° 8 kt METAR LFLU 221330Z AUTO 21008KT 170V260 CAVOK 33/19 Q1009
15:00
V
32 °C 10 km+ - 190°   190° 7 kt METAR LFLU 221300Z AUTO 19007KT 140V210 CAVOK 32/17 Q1009
14:30
V
32 °C 10 km+ - Var   Var 3 kt METAR LFLU 221230Z AUTO VRB03KT CAVOK 32/17 Q1009
14:00
V
31 °C 10 km+ - Var   Var 3 kt METAR LFLU 221200Z AUTO VRB03KT CAVOK 31/17 Q1010
13:30
V
31 °C 10 km+ - Var   Var 3 kt METAR LFLU 221130Z AUTO VRB03KT CAVOK 31/17 Q1010
13:00
V
30 °C 10 km+ - Var   Var 2 kt METAR LFLU 221100Z AUTO VRB02KT CAVOK 30/18 Q1011
12:30
V
29 °C 10 km+ - 100°   100° 3 kt METAR LFLU 221030Z AUTO 10003KT 360V170 CAVOK 29/17 Q1011
12:00
V
27 °C 10 km+ - Var   Var 2 kt METAR LFLU 221000Z AUTO VRB02KT CAVOK 27/17 Q1012
11:30
V
26 °C 10 km+ - 310°   310° 4 kt METAR LFLU 220930Z AUTO 31004KT 220V360 CAVOK 26/17 Q1012
11:00
V
26 °C 10 km+ - Var   Var 1 kt METAR LFLU 220900Z AUTO VRB01KT CAVOK 26/17 Q1012
10:30
L
25 °C 0 m - Var   Var 2 kt METAR LFLU 220830Z AUTO VRB02KT //// // NSC 25/17 Q1013
10:00
V
24 °C 10 km+ - Var   Var 2 kt METAR LFLU 220800Z AUTO VRB02KT CAVOK 24/16 Q1013
09:30
V
22 °C 10 km+ - 150°   150° 4 kt METAR LFLU 220730Z AUTO 15004KT 110V180 CAVOK 22/17 Q1013
09:00
V
21 °C 10 km+ - 160°   160° 3 kt METAR LFLU 220700Z AUTO 16003KT 130V190 CAVOK 21/16 Q1014
08:30
V
20 °C 10 km+ - Var   Var 3 kt METAR LFLU 220630Z AUTO VRB03KT CAVOK 20/16 Q1014
08:00
V
18 °C 10 km+ - Var   Var 2 kt METAR LFLU 220600Z AUTO VRB02KT CAVOK 18/16 Q1014

21 maggio 2022

Tempo Codice Tempo metereologico Temp. Vista Nuvole Vento METAR/SPECI
20:00
V
29 °C 10 km+ - 200°   200° 4 kt METAR LFLU 211800Z AUTO 20004KT CAVOK 29/17 Q1015
19:30
V
31 °C 10 km+ - 210°   210° 3 kt METAR LFLU 211730Z AUTO 21003KT CAVOK 31/18 Q1015
19:00
V
33 °C 10 km+ - Var   000° 0 kt METAR LFLU 211700Z AUTO 00000KT CAVOK 33/13 Q1015
18:30
V
33 °C 10 km+ - Var   000° 0 kt METAR LFLU 211630Z AUTO 00000KT CAVOK 33/11 Q1016
18:00
V
34 °C 10 km+ - Var   Var 2 kt METAR LFLU 211600Z AUTO VRB02KT CAVOK 34/11 Q1016
17:30
V
33 °C 10 km+ - 350°   350° 3 kt METAR LFLU 211530Z AUTO 35003KT 290V070 CAVOK 33/12 Q1016
17:00
V
33 °C 10 km+ - Var   Var 2 kt METAR LFLU 211500Z AUTO VRB02KT CAVOK 33/12 Q1017
16:30
V
33 °C 10 km+ - 330°   330° 4 kt METAR LFLU 211430Z AUTO 33004KT 290V030 CAVOK 33/12 Q1017
16:00
V
32 °C 10 km+ - Var   Var 3 kt METAR LFLU 211400Z AUTO VRB03KT CAVOK 32/12 Q1018
15:30
V
31 °C 10 km+ - 010°   010° 4 kt METAR LFLU 211330Z AUTO 01004KT 280V080 CAVOK 31/13 Q1018
15:00
V
31 °C 10 km+ - Var   Var 4 kt METAR LFLU 211300Z AUTO VRB04KT CAVOK 31/12 Q1019
14:30
V
30 °C 10 km+ - Var   Var 3 kt METAR LFLU 211230Z AUTO VRB03KT 9999 FEW010 30/11 Q1019
14:00
V
30 °C 10 km+ - 340°   340° 3 kt METAR LFLU 211200Z AUTO 34003KT 280V080 CAVOK 30/11 Q1020
13:30
V
29 °C 10 km+ - 330°   330° 4 kt METAR LFLU 211130Z AUTO 33004KT 270V030 CAVOK 29/09 Q1020
13:00
V
28 °C 10 km+ - 020°   020° 3 kt METAR LFLU 211100Z AUTO 02003KT 340V080 CAVOK 28/12 Q1020
12:30
V
27 °C 10 km+ - 030°   030° 5 kt METAR LFLU 211030Z AUTO 03005KT 340V090 CAVOK 27/12 Q1020
12:00
V
26 °C 10 km+ - 030°   030° 4 kt METAR LFLU 211000Z AUTO 03004KT 330V080 CAVOK 26/11 Q1021
11:30
V
26 °C 10 km+ - 010°   010° 3 kt METAR LFLU 210930Z AUTO 01003KT 310V060 CAVOK 26/12 Q1021
11:00
V
25 °C 10 km+ - 050°   050° 3 kt METAR LFLU 210900Z AUTO 05003KT 320V120 CAVOK 25/13 Q1021
10:30
V
23 °C 10 km+ - Var   Var 2 kt METAR LFLU 210830Z AUTO VRB02KT CAVOK 23/13 Q1021
10:00
V
22 °C 10 km+ - 340°   340° 4 kt METAR LFLU 210800Z AUTO 34004KT 290V010 CAVOK 22/13 Q1022
09:30
V
22 °C 10 km+ - Var   Var 3 kt METAR LFLU 210730Z AUTO VRB03KT CAVOK 22/13 Q1022
09:00
V
21 °C 10 km+ - Var   Var 2 kt METAR LFLU 210700Z AUTO VRB02KT CAVOK 21/13 Q1022
08:30
V
19 °C 10 km+ - 360°   360° 2 kt METAR LFLU 210630Z AUTO 36002KT CAVOK 19/13 Q1022
08:00
V
18 °C 10 km+ - Var   Var 3 kt METAR LFLU 210600Z AUTO VRB03KT CAVOK 18/13 Q1022
Dati più vecchi

Scarica la nostra applicazione

Facile accesso a tutte le previsioni dell'aviazione sul tuo cellulare e tablet.
Con molte caratteristiche non disponibili sul sito web, come il supporto offline e una lista personale di aeroporti.

Noi e le terze parti seguiamo il tuo comportamento in internet sul nostro sito web con i cookie. Se continui, riteniamo che tu sia d'accordo con la nostra politica sui cookie. Per saperne di più